createdAt,value
2017-12-16T00:02:52.851Z,9.53
2017-12-16T00:05:03.224Z,9.43
2017-12-16T00:07:22.595Z,8.29
2017-12-16T00:09:34.589Z,8.34
2017-12-16T00:11:51.964Z,7.67
2017-12-16T00:14:05.228Z,8
2017-12-16T00:16:13.825Z,9.04
2017-12-16T00:18:34.562Z,7.72
2017-12-16T00:22:48.666Z,7.62
2017-12-16T00:27:20.951Z,6.91
2017-12-16T00:32:08.067Z,6.96
2017-12-16T00:37:07.500Z,5.29
2017-12-16T00:41:25.342Z,6.67
2017-12-16T00:43:35.403Z,5.44
2017-12-16T00:45:44.145Z,5.67
2017-12-16T00:47:59.291Z,5.63
2017-12-16T00:52:10.770Z,4.91
2017-12-16T00:59:35.714Z,4.58
2017-12-16T01:01:44.170Z,4.39
2017-12-16T01:04:04.604Z,3.2
2017-12-16T01:06:19.433Z,4.72
2017-12-16T01:10:27.345Z,3.72
2017-12-16T01:12:44.446Z,4.3
2017-12-16T01:15:14.029Z,3.81
2017-12-16T01:17:23.630Z,3.68
2017-12-16T01:19:30.707Z,3.96
2017-12-16T01:21:39.693Z,5.1
2017-12-16T01:23:48.785Z,3.53
2017-12-16T01:26:05.305Z,4.49
2017-12-16T01:28:27.487Z,4.15
2017-12-16T01:30:51.226Z,4.68
2017-12-16T01:32:58.681Z,4.25
2017-12-16T01:35:18.148Z,3.77
2017-12-16T01:37:51.587Z,4.49
2017-12-16T01:40:14.850Z,4.87
2017-12-16T01:42:23.223Z,3.72
2017-12-16T01:44:36.207Z,4.82
2017-12-16T01:46:53.330Z,4.06
2017-12-16T01:49:04.430Z,4.44
2017-12-16T01:51:17.244Z,4.68
2017-12-16T01:53:24.487Z,4.39
2017-12-16T01:55:46.079Z,4.2
2017-12-16T01:58:06.450Z,4.39
2017-12-16T02:00:13.670Z,4.3
2017-12-16T02:02:26.747Z,5.15
2017-12-16T02:04:42.169Z,5.29
2017-12-16T02:06:48.985Z,4.91
2017-12-16T02:08:57.689Z,5.29
2017-12-16T02:11:04.805Z,5.44
2017-12-16T02:13:12.583Z,5.1
2017-12-16T02:15:29.125Z,4.72
2017-12-16T02:17:35.961Z,4.67
2017-12-16T02:19:42.829Z,4.44
2017-12-16T02:21:51.532Z,4.15
2017-12-16T02:24:12.045Z,4.91
2017-12-16T02:26:21.953Z,4.01
2017-12-16T02:28:32.206Z,4.01
2017-12-16T02:30:39.812Z,4.11
2017-12-16T02:32:48.612Z,4.2
2017-12-16T02:34:59.352Z,4.34
2017-12-16T02:37:16.084Z,5.06
2017-12-16T02:39:25.051Z,5.67
2017-12-16T02:41:34.708Z,4.87
2017-12-16T02:48:24.406Z,4.58
2017-12-16T02:50:42.689Z,4.63
2017-12-16T02:52:55.147Z,4.82
2017-12-16T02:55:09.314Z,4.96
2017-12-16T02:59:22.926Z,5.1
2017-12-16T03:01:33.371Z,5.82
2017-12-16T03:03:45.731Z,5.53
2017-12-16T03:05:53.274Z,6.48
2017-12-16T03:08:04.206Z,6.58
2017-12-16T03:12:43.624Z,8.19
2017-12-16T03:15:31.366Z,8.34
2017-12-16T03:17:37.330Z,8.24
2017-12-16T03:19:45.934Z,8.15
2017-12-16T03:21:57.007Z,8.05
2017-12-16T03:24:08.520Z,7.29
2017-12-16T03:26:24.159Z,7.58
2017-12-16T03:28:30.863Z,6.15
2017-12-16T03:30:40.552Z,7.62
2017-12-16T03:32:51.721Z,7.29
2017-12-16T03:35:00.600Z,5.86
2017-12-16T03:37:13.187Z,6.85
2017-12-16T03:39:33.436Z,6.15
2017-12-16T03:41:47.602Z,6.05
2017-12-16T03:43:56.767Z,6.44
2017-12-16T03:51:01.087Z,5.82
2017-12-16T03:53:24.752Z,5.58
2017-12-16T03:55:43.370Z,5.67
2017-12-16T04:00:25.095Z,6.85
2017-12-16T04:02:49.888Z,7.15
2017-12-16T04:07:29.211Z,5.39
2017-12-16T04:11:51.902Z,4.91
2017-12-16T04:14:06.528Z,5.14
2017-12-16T04:18:12.464Z,5.76
2017-12-16T04:20:20.470Z,5
2017-12-16T04:22:40.629Z,4.96
2017-12-16T04:29:52.393Z,4.24
2017-12-16T04:32:04.566Z,4.53
2017-12-16T04:34:13.183Z,4.72
2017-12-16T04:36:20.007Z,4.34
2017-12-16T04:38:26.153Z,4.82
2017-12-16T04:40:33.750Z,4.58
2017-12-16T04:43:00.065Z,5.72
2017-12-16T04:45:10.863Z,5.44
2017-12-16T04:47:19.150Z,4.49
2017-12-16T04:49:26.171Z,4.3
2017-12-16T04:53:39.011Z,4.01
2017-12-16T04:55:46.209Z,3.77
2017-12-16T04:57:55.170Z,4.34
2017-12-16T05:00:11.093Z,3.82
2017-12-16T05:02:19.905Z,3.77
2017-12-16T05:04:28.189Z,4.81
2017-12-16T05:06:39.966Z,5.06
2017-12-16T05:08:48.466Z,5.01
2017-12-16T05:11:10.148Z,4.87
2017-12-16T05:13:22.683Z,5.48
2017-12-16T05:15:31.187Z,4.29
2017-12-16T05:17:39.787Z,5.1
2017-12-16T05:19:49.444Z,5.48
2017-12-16T05:21:57.286Z,4.39
2017-12-16T05:24:11.408Z,4.25
2017-12-16T05:26:18.567Z,3.77
2017-12-16T05:28:24.805Z,3.82
2017-12-16T05:30:33.545Z,4.96
2017-12-16T05:32:43.605Z,5.25
2017-12-16T05:34:49.646Z,4.3
2017-12-16T05:37:03.346Z,5.95
2017-12-16T05:39:27.929Z,6.67
2017-12-16T05:41:44.747Z,5.71
2017-12-16T05:43:56.207Z,5.48
2017-12-16T05:46:11.864Z,5.33
2017-12-16T05:51:01.841Z,5.1
2017-12-16T05:53:16.904Z,5.39
2017-12-16T05:55:39.401Z,5.06
2017-12-16T05:57:52.820Z,5.39
2017-12-16T06:00:06.865Z,5.38
2017-12-16T06:04:42.488Z,5.43
2017-12-16T06:06:52.029Z,5.29
2017-12-16T06:09:00.212Z,6.29
2017-12-16T06:11:10.349Z,4.49
2017-12-16T06:13:39.022Z,5.44
2017-12-16T06:18:15.545Z,6.96
2017-12-16T06:20:38.794Z,7.71
2017-12-16T06:22:50.235Z,7.18
2017-12-16T06:24:57.067Z,6.61
2017-12-16T06:29:40.245Z,6.39
2017-12-16T06:32:08.127Z,6.57
2017-12-16T06:34:39.573Z,7.37
2017-12-16T06:37:08.367Z,7.29
2017-12-16T06:39:41.485Z,6.95
2017-12-16T06:46:38.054Z,5.91
2017-12-16T06:49:01.069Z,5.71
2017-12-16T06:51:08.693Z,6.34
2017-12-16T06:53:26.807Z,6.63
2017-12-16T06:55:42.581Z,5.82
2017-12-16T07:00:27.825Z,5.33
2017-12-16T07:02:34.700Z,5.63
2017-12-16T07:04:51.989Z,4.86
2017-12-16T07:06:59.610Z,5.86
2017-12-16T07:11:35.103Z,6.23
2017-12-16T07:13:48.611Z,5.95
2017-12-16T07:15:57.411Z,5.14
2017-12-16T07:18:05.066Z,5.24
2017-12-16T07:20:19.052Z,5.72
2017-12-16T07:24:25.561Z,4.25
2017-12-16T07:26:35.968Z,4.86
2017-12-16T07:28:46.378Z,5.05
2017-12-16T07:30:54.785Z,5.25
2017-12-16T07:33:01.785Z,6.14
2017-12-16T07:35:11.378Z,5.86
2017-12-16T07:37:24.888Z,5.44
2017-12-16T07:39:32.306Z,6.2
2017-12-16T07:41:48.630Z,5.15
2017-12-16T07:44:03.597Z,5.29
2017-12-16T07:46:14.468Z,5.29
2017-12-16T07:48:33.767Z,5.19
2017-12-16T07:50:51.667Z,5.76
2017-12-16T07:55:11.506Z,5.81
2017-12-16T08:03:28.049Z,6.05
2017-12-16T08:05:40.483Z,4.53
2017-12-16T08:08:04.381Z,5.34
2017-12-16T08:10:12.550Z,5.44
2017-12-16T08:12:25.927Z,5.82
2017-12-16T08:14:41.581Z,5.52
2017-12-16T08:16:50.829Z,5.72
2017-12-16T08:19:02.300Z,5.44
2017-12-16T08:21:16.825Z,6.05
2017-12-16T08:23:29.681Z,5.25
2017-12-16T08:25:40.545Z,5.25
2017-12-16T08:27:50.968Z,4.76
2017-12-16T08:29:59.152Z,5.58
2017-12-16T08:34:26.420Z,4.91
2017-12-16T08:36:36.761Z,4.43
2017-12-16T08:38:53.303Z,5
2017-12-16T08:41:18.347Z,6.05
2017-12-16T08:43:37.622Z,4.91
2017-12-16T08:45:56.290Z,5.38
2017-12-16T08:48:03.486Z,4.38
2017-12-16T08:57:09.065Z,5.33
2017-12-16T08:59:17.691Z,5.76
2017-12-16T09:01:35.170Z,5.52
2017-12-16T09:06:16.830Z,4.81
2017-12-16T09:08:29.661Z,4.91
2017-12-16T09:10:38.872Z,4.72
2017-12-16T09:12:50.383Z,5.62
2017-12-16T09:15:02.189Z,4.57
2017-12-16T09:17:13.708Z,5.67
2017-12-16T09:19:27.158Z,5.19
2017-12-16T09:21:38.690Z,4.39
2017-12-16T09:23:48.012Z,5.1
2017-12-16T09:26:06.192Z,4.68
2017-12-16T09:28:16.050Z,5.48
2017-12-16T09:30:27.289Z,4.72
2017-12-16T09:32:43.290Z,5.34
2017-12-16T09:35:05.110Z,5.67
2017-12-16T09:37:34.292Z,4.91
2017-12-16T09:41:39.001Z,5.24
2017-12-16T09:43:45.417Z,4.38
2017-12-16T09:46:26.445Z,4.95
2017-12-16T09:48:32.404Z,4.44
2017-12-16T09:50:53.983Z,4.1
2017-12-16T09:53:05.846Z,3.82
2017-12-16T09:55:17.275Z,4.34
2017-12-16T09:57:32.119Z,5.67
2017-12-16T09:59:42.607Z,5.14
2017-12-16T10:01:50.426Z,5.48
2017-12-16T10:04:05.746Z,5.38
2017-12-16T10:06:17.763Z,5.48
2017-12-16T10:11:04.411Z,4.67
2017-12-16T10:13:15.181Z,5.57
2017-12-16T10:15:37.205Z,4.57
2017-12-16T10:17:55.745Z,4.57
2017-12-16T10:20:13.351Z,5.15
2017-12-16T10:22:29.076Z,4.62
2017-12-16T10:24:36.976Z,4.67
2017-12-16T10:26:44.140Z,4.19
2017-12-16T10:29:00.005Z,4
2017-12-16T10:33:25.795Z,4.86
2017-12-16T10:35:41.985Z,4.15
2017-12-16T10:40:22.992Z,3.77
2017-12-16T10:42:42.789Z,4.48
2017-12-16T10:44:51.009Z,4.53
2017-12-16T10:47:00.888Z,4.05
2017-12-16T10:49:17.567Z,4.29
2017-12-16T10:51:25.089Z,3.86
2017-12-16T10:53:35.389Z,3.62
2017-12-16T10:55:45.368Z,3.81
2017-12-16T10:57:56.132Z,4.95
2017-12-16T11:00:08.385Z,4.57
2017-12-16T11:02:29.541Z,4.19
2017-12-16T11:04:43.653Z,4.95
2017-12-16T11:09:20.628Z,5
2017-12-16T11:11:44.242Z,4.53
2017-12-16T11:13:59.597Z,4.68
2017-12-16T11:20:39.198Z,3.77
2017-12-16T11:22:55.924Z,3.62
2017-12-16T11:25:08.425Z,3.48
2017-12-16T11:27:24.265Z,3.81
2017-12-16T11:29:33.088Z,4.19
2017-12-16T11:31:51.030Z,4.86
2017-12-16T11:34:02.990Z,5.86
2017-12-16T11:38:56.970Z,6.04
2017-12-16T11:41:08.426Z,5.43
2017-12-16T11:45:48.626Z,7.09
2017-12-16T11:47:57.068Z,5.1
2017-12-16T11:50:12.929Z,6.19
2017-12-16T11:52:25.206Z,5.76
2017-12-16T11:54:38.672Z,6.61
2017-12-16T11:57:03.728Z,5.67
2017-12-16T11:59:16.550Z,5.95
2017-12-16T12:01:25.250Z,5.29
2017-12-16T12:03:31.643Z,6
2017-12-16T12:05:45.342Z,5.48
2017-12-16T12:08:05.926Z,5.33
2017-12-16T12:10:21.749Z,6.52
2017-12-16T12:12:33.830Z,5.76
2017-12-16T12:14:50.302Z,6.19
2017-12-16T12:17:01.441Z,6.19
2017-12-16T12:19:15.992Z,5.76
2017-12-16T12:21:28.006Z,5.9
2017-12-16T12:23:41.644Z,5.81
2017-12-16T12:25:49.625Z,4.76
2017-12-16T12:28:00.369Z,5.38
2017-12-16T12:30:13.204Z,5.71
2017-12-16T12:32:39.332Z,4.81
2017-12-16T12:35:01.670Z,5.81
2017-12-16T12:37:20.113Z,5.81
2017-12-16T12:39:26.713Z,6.14
2017-12-16T12:44:11.878Z,6.42
2017-12-16T12:46:31.042Z,6.47
2017-12-16T12:48:54.506Z,6
2017-12-16T12:51:05.985Z,6.28
2017-12-16T12:53:33.882Z,5.48
2017-12-16T12:55:48.064Z,6.42
2017-12-16T12:58:01.909Z,5.76
2017-12-16T13:00:12.774Z,5.29
2017-12-16T13:04:53.997Z,6.33
2017-12-16T13:07:03.248Z,5.38
2017-12-16T13:09:16.288Z,6.38
2017-12-16T13:11:25.894Z,6.42
2017-12-16T13:13:33.813Z,6.04
2017-12-16T13:15:41.818Z,6.28
2017-12-16T13:17:51.365Z,6.23
2017-12-16T13:20:15.045Z,5.29
2017-12-16T13:24:59.689Z,5.71
2017-12-16T13:27:10.607Z,6.52
2017-12-16T13:29:17.040Z,6.28
2017-12-16T13:31:31.406Z,6.52
2017-12-16T13:33:52.765Z,6.66
2017-12-16T13:36:00.964Z,6.57
2017-12-16T13:38:12.948Z,7.18
2017-12-16T13:40:30.468Z,7.04
2017-12-16T13:42:48.068Z,7.18
2017-12-16T13:44:57.557Z,6.57
2017-12-16T13:47:28.354Z,6.52
2017-12-16T13:49:30.288Z,7.14
2017-12-16T13:51:52.357Z,7.14
2017-12-16T13:54:02.730Z,7.56
2017-12-16T13:56:15.675Z,6.47
2017-12-16T13:58:30.859Z,8.04
2017-12-16T14:00:50.588Z,6.9
2017-12-16T14:03:01.601Z,6.85
2017-12-16T14:05:10.144Z,6.38
2017-12-16T14:07:22.788Z,7.28
2017-12-16T14:09:34.811Z,7.33
2017-12-16T14:14:01.035Z,7.18
2017-12-16T14:16:22.332Z,6.71
2017-12-16T14:18:38.408Z,7.9
2017-12-16T14:20:54.863Z,6.63
2017-12-16T14:23:11.039Z,6.52
2017-12-16T14:25:22.380Z,6.33
2017-12-16T14:27:41.603Z,7.33
2017-12-16T14:29:50.402Z,6.38
2017-12-16T14:32:04.997Z,7.56
2017-12-16T14:36:33.660Z,7.18
2017-12-16T14:38:54.599Z,7.71
2017-12-16T14:41:16.301Z,7.42
2017-12-16T14:43:29.847Z,7.28
2017-12-16T14:45:41.862Z,8.04
2017-12-16T14:47:52.797Z,7.56
2017-12-16T14:50:02.879Z,7.85
2017-12-16T14:52:15.461Z,7.75
2017-12-16T15:00:36.883Z,7.33
2017-12-16T15:02:49.262Z,7.85
2017-12-16T15:05:15.154Z,7.75
2017-12-16T15:07:31.773Z,7.33
2017-12-16T15:09:48.392Z,7.37
2017-12-16T15:12:00.226Z,7.9
2017-12-16T15:14:07.977Z,7.33
2017-12-16T15:16:20.009Z,9.23
2017-12-16T15:18:37.658Z,8.51
2017-12-16T15:23:05.708Z,8.37
2017-12-16T15:25:13.942Z,7.9
2017-12-16T15:27:35.343Z,7.52
2017-12-16T15:29:43.712Z,8.56
2017-12-16T15:31:51.729Z,7.61
2017-12-16T15:34:09.405Z,7.71
2017-12-16T15:36:20.860Z,8.13
2017-12-16T15:38:29.919Z,8.43
2017-12-16T15:40:37.028Z,6.85
2017-12-16T15:43:04.153Z,8.13
2017-12-16T15:45:19.666Z,7.99
2017-12-16T15:47:32.390Z,8.51
2017-12-16T15:51:53.635Z,7.9
2017-12-16T15:54:03.644Z,7.37
2017-12-16T15:56:14.540Z,7.52
2017-12-16T15:58:33.509Z,7.37
2017-12-16T16:00:53.032Z,7.71
2017-12-16T16:03:01.544Z,7.04
2017-12-16T16:05:19.588Z,8.56
2017-12-16T16:07:41.185Z,7.94
2017-12-16T16:09:58.275Z,7.99
2017-12-16T16:12:08.287Z,7.09
2017-12-16T16:14:15.188Z,7.75
2017-12-16T16:16:30.608Z,7.71
2017-12-16T16:18:43.029Z,8.18
2017-12-16T16:21:04.768Z,7.42
2017-12-16T16:23:13.947Z,7.8
2017-12-16T16:25:28.677Z,7.42
2017-12-16T16:29:32.966Z,7.42
2017-12-16T16:31:42.667Z,7.28
2017-12-16T16:33:49.812Z,6.61
2017-12-16T16:35:58.532Z,7.33
2017-12-16T16:38:06.333Z,6.52
2017-12-16T16:42:29.444Z,6.09
2017-12-16T16:44:54.174Z,7.09
2017-12-16T16:47:03.967Z,6.33
2017-12-16T16:49:11.128Z,6.42
2017-12-16T16:51:19.887Z,6.28
2017-12-16T16:53:30.633Z,6.99
2017-12-16T16:55:37.404Z,6.57
2017-12-16T16:57:45.009Z,6.8
2017-12-16T16:59:55.927Z,6.66
2017-12-16T17:02:04.687Z,5.86
2017-12-16T17:04:11.706Z,6.76
2017-12-16T17:06:20.246Z,5.38
2017-12-16T17:08:35.361Z,7.05
2017-12-16T17:10:44.512Z,6.52
2017-12-16T17:12:56.610Z,6.61
2017-12-16T17:15:19.638Z,6.42
2017-12-16T17:17:36.143Z,7.33
2017-12-16T17:19:45.784Z,7.28
2017-12-16T17:22:01.431Z,7.61
2017-12-16T17:24:06.808Z,7.61
2017-12-16T17:26:19.482Z,6.61
2017-12-16T17:28:41.449Z,7.23
2017-12-16T17:30:49.686Z,7.14
2017-12-16T17:32:56.062Z,7.04
2017-12-16T17:37:39.927Z,6.76
2017-12-16T17:39:54.244Z,6.28
2017-12-16T17:42:02.572Z,7.18
2017-12-16T17:44:24.429Z,6.76
2017-12-16T17:46:34.594Z,7.37
2017-12-16T17:48:58.590Z,6.38
2017-12-16T17:51:11.626Z,7.37
2017-12-16T17:53:19.725Z,6.9
2017-12-16T17:55:30.746Z,6.52
2017-12-16T17:57:38.744Z,7.04
2017-12-16T17:59:48.345Z,6.47
2017-12-16T18:04:27.629Z,6.57
2017-12-16T18:06:33.474Z,6.61
2017-12-16T18:08:53.888Z,7.23
2017-12-16T18:11:08.368Z,6.42
2017-12-16T18:15:42.165Z,6.95
2017-12-16T18:22:42.663Z,6.8
2017-12-16T18:24:49.909Z,6.61
2017-12-16T18:26:59.476Z,6.9
2017-12-16T18:29:11.388Z,6.8
2017-12-16T18:31:20.428Z,6.23
2017-12-16T18:33:51.708Z,6.99
2017-12-16T18:36:05.910Z,6.8
2017-12-16T18:38:28.183Z,6.8
2017-12-16T18:40:45.043Z,6.66
2017-12-16T18:43:06.486Z,5.86
2017-12-16T18:45:12.331Z,6.23
2017-12-16T18:47:24.745Z,6.23
2017-12-16T18:52:11.454Z,6.61
2017-12-16T18:54:21.202Z,6.42
2017-12-16T18:56:36.845Z,7.42
2017-12-16T18:58:51.845Z,6.33
2017-12-16T19:01:12.413Z,7.14
2017-12-16T19:03:20.361Z,6.57
2017-12-16T19:05:58.024Z,7.04
2017-12-16T19:08:04.930Z,7.99
2017-12-16T19:10:20.471Z,6.47
2017-12-16T19:12:35.291Z,7.42
2017-12-16T19:14:42.426Z,6.76
2017-12-16T19:16:58.888Z,7.14
2017-12-16T19:19:13.947Z,7.23
2017-12-16T19:21:23.254Z,7.71
2017-12-16T19:23:41.069Z,6.8
2017-12-16T19:26:04.507Z,7.04
2017-12-16T19:32:29.222Z,7.23
2017-12-16T19:34:38.091Z,7.37
2017-12-16T19:36:51.046Z,6.95
2017-12-16T19:39:01.109Z,8.32
2017-12-16T19:41:11.027Z,7.14
2017-12-16T19:43:19.967Z,8.04
2017-12-16T19:45:32.028Z,6.09
2017-12-16T19:47:40.865Z,7.33
2017-12-16T19:49:50.775Z,6.15
2017-12-16T19:52:00.597Z,6.67
2017-12-16T19:54:22.092Z,6.1
2017-12-16T19:56:28.853Z,6.82
2017-12-16T19:59:01.810Z,6.01
2017-12-16T20:01:12.380Z,6.91
2017-12-16T20:03:38.806Z,5.34
2017-12-16T20:07:42.851Z,6.82
2017-12-16T20:09:52.685Z,5.72
2017-12-16T20:12:03.062Z,6.91
2017-12-16T20:14:11.269Z,7.2
2017-12-16T20:16:21.107Z,6.39
2017-12-16T20:18:33.554Z,7.29
2017-12-16T20:20:42.145Z,6.25
2017-12-16T20:22:49.688Z,6.44
2017-12-16T20:24:57.067Z,6.86
2017-12-16T20:27:03.363Z,6.67
2017-12-16T20:29:11.607Z,5.86
2017-12-16T20:31:22.401Z,6.39
2017-12-16T20:33:30.932Z,6.58
2017-12-16T20:35:50.108Z,6.01
2017-12-16T20:44:16.764Z,4.21
2017-12-16T20:46:32.191Z,6.15
2017-12-16T20:48:40.544Z,6.44
2017-12-16T20:50:53.147Z,5.91
2017-12-16T20:55:15.650Z,5.91
2017-12-16T20:57:21.699Z,5.01
2017-12-16T20:59:27.634Z,6.05
2017-12-16T21:01:38.409Z,5.01
2017-12-16T21:03:45.152Z,5.67
2017-12-16T21:05:51.138Z,6.2
2017-12-16T21:08:02.611Z,6.15
2017-12-16T21:10:20.367Z,5.39
2017-12-16T21:12:27.484Z,6.53
2017-12-16T21:14:45.902Z,5.72
2017-12-16T21:17:06.448Z,5.91
2017-12-16T21:21:41.125Z,5.67
2017-12-16T21:23:49.545Z,5.25
2017-12-16T21:26:06.317Z,5.2
2017-12-16T21:28:26.667Z,5.01
2017-12-16T21:30:34.466Z,5.15
2017-12-16T21:32:42.228Z,5.2
2017-12-16T21:34:51.746Z,5.48
2017-12-16T21:37:15.171Z,5.1
2017-12-16T21:39:31.645Z,5.58
2017-12-16T21:41:43.208Z,5.48
2017-12-16T21:43:51.363Z,5.68
2017-12-16T21:46:11.684Z,6.48
2017-12-16T21:48:20.746Z,5.63
2017-12-16T21:50:28.857Z,6.34
2017-12-16T21:52:39.354Z,5.77
2017-12-16T21:57:07.883Z,5.25
2017-12-16T21:59:17.067Z,5.45
2017-12-16T22:01:39.628Z,5.3
2017-12-16T22:03:50.104Z,5.59
2017-12-16T22:06:03.092Z,4.78
2017-12-16T22:08:26.488Z,5.01
2017-12-16T22:10:43.720Z,4.73
2017-12-16T22:13:10.252Z,4.77
2017-12-16T22:17:33.269Z,4.59
2017-12-16T22:21:52.765Z,5.25
2017-12-16T22:24:01.410Z,5.2
2017-12-16T22:26:13.908Z,5.06
2017-12-16T22:28:44.046Z,5.67
2017-12-16T22:31:00.967Z,5.1
2017-12-16T22:33:25.124Z,5.82
2017-12-16T22:35:38.647Z,5.34
2017-12-16T22:37:47.031Z,5.48
2017-12-16T22:40:01.724Z,6.53
2017-12-16T22:44:10.584Z,5.1
2017-12-16T22:46:25.465Z,6.39
2017-12-16T22:50:28.287Z,5.86
2017-12-16T22:52:35.392Z,5.96
2017-12-16T22:54:43.572Z,6.25
2017-12-16T22:59:20.328Z,5.15
2017-12-16T23:01:27.273Z,5.67
2017-12-16T23:03:36.873Z,6.29
2017-12-16T23:05:43.046Z,7.29
2017-12-16T23:07:50.678Z,7.67
2017-12-16T23:09:56.745Z,7.24
2017-12-16T23:12:09.353Z,8.48
2017-12-16T23:14:14.160Z,7.43
2017-12-16T23:16:21.195Z,8.29
2017-12-16T23:18:28.314Z,7.72
2017-12-16T23:23:05.491Z,8.43
2017-12-16T23:25:13.652Z,8.67
2017-12-16T23:27:37.735Z,7.81
2017-12-16T23:29:43.109Z,8.67
2017-12-16T23:31:49.114Z,9.53
2017-12-16T23:33:56.824Z,8.77
2017-12-16T23:36:03.534Z,8.72
2017-12-16T23:38:10.475Z,8.05
2017-12-16T23:40:21.790Z,8.05
2017-12-16T23:42:33.729Z,9.24
2017-12-16T23:44:41.104Z,8.77
2017-12-16T23:49:24.142Z,9.05
2017-12-16T23:51:37.265Z,8.67
2017-12-16T23:53:54.335Z,7.58
2017-12-16T23:56:02.564Z,8.81
2017-12-16T23:58:10.906Z,9.05
